createdAt,value
2018-07-22T00:00:42.707Z,17.53
2018-07-22T00:03:11.313Z,17.53
2018-07-22T00:05:39.876Z,17.63
2018-07-22T00:08:08.449Z,17.72
2018-07-22T00:10:37.002Z,17.81
2018-07-22T00:13:05.582Z,17.87
2018-07-22T00:15:34.178Z,17.89
2018-07-22T00:18:02.726Z,17.87
2018-07-22T00:20:31.341Z,17.78
2018-07-22T00:22:59.895Z,17.69
2018-07-22T00:25:28.442Z,17.58
2018-07-22T00:27:56.945Z,17.49
2018-07-22T00:30:25.534Z,17.40
2018-07-22T00:32:54.068Z,17.27
2018-07-22T00:35:22.714Z,17.14
2018-07-22T00:37:51.490Z,17.07
2018-07-22T00:40:20.067Z,17.03
2018-07-22T00:42:49.855Z,17.00
2018-07-22T00:45:18.556Z,16.94
2018-07-22T00:47:47.239Z,16.92
2018-07-22T00:50:15.876Z,16.94
2018-07-22T00:52:44.430Z,17.00
2018-07-22T00:55:13.025Z,17.03
2018-07-22T00:57:41.627Z,17.10
2018-07-22T01:00:10.319Z,17.18
2018-07-22T01:02:38.903Z,17.24
2018-07-22T01:05:07.746Z,17.26
2018-07-22T01:07:36.298Z,17.28
2018-07-22T01:10:05.031Z,17.27
2018-07-22T01:12:33.757Z,17.25
2018-07-22T01:15:02.396Z,17.24
2018-07-22T01:17:30.963Z,17.28
2018-07-22T01:19:59.559Z,17.33
2018-07-22T01:22:28.314Z,17.41
2018-07-22T01:24:56.846Z,17.43
2018-07-22T01:27:25.418Z,17.49
2018-07-22T01:29:54.146Z,17.56
2018-07-22T01:32:22.619Z,17.58
2018-07-22T01:34:51.184Z,17.59
2018-07-22T01:37:20.355Z,17.59
2018-07-22T01:39:49.475Z,17.63
2018-07-22T01:42:18.182Z,17.62
2018-07-22T01:44:46.816Z,17.66
2018-07-22T01:47:15.314Z,17.64
2018-07-22T01:49:43.903Z,17.62
2018-07-22T01:52:12.543Z,17.68
2018-07-22T01:54:41.098Z,17.68
2018-07-22T02:02:40.658Z,17.58
2018-07-22T02:05:09.184Z,17.57
2018-07-22T02:07:37.816Z,17.58
2018-07-22T02:10:06.559Z,17.55
2018-07-22T02:12:35.070Z,17.56
2018-07-22T02:15:03.989Z,17.54
2018-07-22T02:17:32.593Z,17.54
2018-07-22T02:20:01.208Z,17.57
2018-07-22T02:22:29.663Z,17.58
2018-07-22T02:24:58.161Z,17.61
2018-07-22T02:27:26.653Z,17.62
2018-07-22T02:29:55.113Z,17.67
2018-07-22T02:32:23.607Z,17.69
2018-07-22T02:34:52.102Z,17.68
2018-07-22T02:37:20.654Z,17.62
2018-07-22T02:39:49.236Z,17.59
2018-07-22T02:42:17.711Z,17.53
2018-07-22T02:44:46.226Z,17.51
2018-07-22T02:47:14.813Z,17.49
2018-07-22T02:49:43.830Z,17.49
2018-07-22T02:52:12.320Z,17.51
2018-07-22T02:54:41.016Z,17.49
2018-07-22T02:57:10.167Z,17.48
2018-07-22T02:59:38.763Z,17.43
2018-07-22T03:02:07.361Z,17.44
2018-07-22T03:04:37.018Z,17.42
2018-07-22T03:07:06.572Z,17.37
2018-07-22T03:09:35.293Z,17.34
2018-07-22T03:12:04.532Z,17.28
2018-07-22T03:14:33.280Z,17.27
2018-07-22T03:17:01.787Z,17.25
2018-07-22T03:19:30.602Z,17.25
2018-07-22T03:21:59.314Z,17.27
2018-07-22T03:24:27.895Z,17.30
2018-07-22T03:26:56.488Z,17.29
2018-07-22T03:29:25.075Z,17.26
2018-07-22T03:31:53.596Z,17.26
2018-07-22T03:34:22.130Z,17.21
2018-07-22T03:36:55.095Z,17.17
2018-07-22T03:39:24.603Z,17.12
2018-07-22T03:41:53.157Z,17.10
2018-07-22T03:44:22.029Z,17.08
2018-07-22T03:46:50.553Z,17.02
2018-07-22T03:49:19.119Z,17.06
2018-07-22T03:51:47.838Z,17.09
2018-07-22T03:54:16.429Z,17.10
2018-07-22T03:56:44.959Z,17.06
2018-07-22T03:59:13.619Z,17.01
2018-07-22T04:01:42.147Z,16.91
2018-07-22T04:04:10.770Z,16.77
2018-07-22T04:06:39.304Z,16.67
2018-07-22T04:09:09.487Z,16.69
2018-07-22T04:11:38.211Z,16.57
2018-07-22T04:14:06.740Z,16.48
2018-07-22T04:16:35.350Z,16.39
2018-07-22T04:19:03.960Z,16.36
2018-07-22T04:21:32.492Z,16.30
2018-07-22T04:24:01.214Z,16.27
2018-07-22T04:26:29.714Z,16.24
2018-07-22T04:28:58.162Z,16.25
2018-07-22T04:31:26.762Z,16.27
2018-07-22T04:33:55.285Z,16.30
2018-07-22T04:36:23.861Z,16.36
2018-07-22T04:38:52.529Z,16.39
2018-07-22T04:41:21.078Z,16.41
2018-07-22T04:43:49.750Z,16.46
2018-07-22T04:46:18.422Z,16.52
2018-07-22T04:48:46.962Z,16.53
2018-07-22T04:51:15.442Z,16.60
2018-07-22T04:53:43.994Z,16.64
2018-07-22T04:56:12.627Z,16.75
2018-07-22T04:58:41.193Z,16.77
2018-07-22T05:01:09.793Z,16.86
2018-07-22T05:03:38.309Z,16.94
2018-07-22T05:06:06.914Z,17.00
2018-07-22T05:08:35.482Z,17.13
2018-07-22T05:11:04.233Z,17.13
2018-07-22T05:13:32.772Z,17.18
2018-07-22T05:16:01.538Z,17.27
2018-07-22T05:18:30.078Z,17.40
2018-07-22T05:20:58.571Z,17.53
2018-07-22T05:23:27.011Z,17.74
2018-07-22T05:25:55.505Z,17.95
2018-07-22T05:28:24.029Z,18.24
2018-07-22T05:30:52.493Z,18.51
2018-07-22T05:33:21.050Z,18.67
2018-07-22T05:35:49.569Z,18.74
2018-07-22T05:38:18.182Z,18.71
2018-07-22T05:40:47.035Z,18.63
2018-07-22T05:43:15.474Z,18.53
2018-07-22T05:45:43.941Z,18.47
2018-07-22T05:48:12.468Z,18.42
2018-07-22T05:50:41.206Z,18.47
2018-07-22T05:53:09.798Z,18.47
2018-07-22T05:55:38.246Z,18.52
2018-07-22T05:58:06.782Z,18.61
2018-07-22T06:00:35.380Z,18.74
2018-07-22T06:03:04.414Z,18.85
2018-07-22T06:05:33.058Z,19.02
2018-07-22T06:08:01.818Z,19.14
2018-07-22T06:10:30.497Z,19.21
2018-07-22T06:12:59.023Z,19.28
2018-07-22T06:15:27.554Z,19.37
2018-07-22T06:17:56.143Z,19.47
2018-07-22T06:20:24.747Z,19.51
2018-07-22T06:22:53.614Z,19.53
2018-07-22T06:25:22.189Z,19.58
2018-07-22T06:27:50.726Z,19.67
2018-07-22T06:30:19.320Z,19.76
2018-07-22T06:32:47.895Z,19.82
2018-07-22T06:35:16.485Z,19.75
2018-07-22T06:37:44.908Z,19.81
2018-07-22T06:40:13.386Z,19.93
2018-07-22T06:42:41.915Z,19.99
2018-07-22T06:45:10.769Z,20.07
2018-07-22T06:47:39.361Z,20.18
2018-07-22T06:50:07.835Z,20.22
2018-07-22T06:52:36.336Z,20.21
2018-07-22T06:55:04.944Z,20.22
2018-07-22T06:57:33.640Z,20.32
2018-07-22T07:00:02.166Z,20.43
2018-07-22T07:02:30.692Z,20.53
2018-07-22T07:04:59.393Z,20.64
2018-07-22T07:07:28.175Z,20.77
2018-07-22T07:09:56.830Z,20.84
2018-07-22T07:12:25.318Z,20.90
2018-07-22T07:14:53.991Z,20.97
2018-07-22T07:17:22.735Z,21.18
2018-07-22T07:19:51.460Z,21.03
2018-07-22T07:22:20.233Z,21.04
2018-07-22T07:24:49.001Z,21.12
2018-07-22T07:27:17.520Z,21.21
2018-07-22T07:29:46.190Z,21.34
2018-07-22T07:32:14.693Z,21.60
2018-07-22T07:34:43.146Z,21.92
2018-07-22T07:37:11.739Z,22.23
2018-07-22T07:39:40.389Z,22.34
2018-07-22T07:42:09.392Z,22.44
2018-07-22T07:44:37.886Z,22.44
2018-07-22T07:47:06.898Z,22.43
2018-07-22T07:49:35.843Z,22.16
2018-07-22T07:52:04.433Z,22.20
2018-07-22T07:54:33.003Z,22.26
2018-07-22T07:57:01.576Z,22.44
2018-07-22T07:59:30.335Z,22.70
2018-07-22T08:01:58.839Z,22.98
2018-07-22T08:04:27.487Z,23.54
2018-07-22T08:06:56.198Z,24.08
2018-07-22T08:09:24.721Z,24.25
2018-07-22T08:11:53.256Z,24.69
2018-07-22T08:14:21.943Z,25.13
2018-07-22T08:16:50.637Z,25.41
2018-07-22T08:19:19.262Z,25.42
2018-07-22T08:21:48.439Z,25.50
2018-07-22T08:24:16.917Z,25.52
2018-07-22T08:26:45.462Z,25.82
2018-07-22T08:29:26.983Z,26.08
2018-07-22T08:31:55.851Z,26.48
2018-07-22T08:34:24.450Z,26.88
2018-07-22T08:36:52.955Z,27.09
2018-07-22T08:39:22.716Z,27.03
2018-07-22T08:41:52.178Z,26.71
2018-07-22T08:44:20.958Z,26.31
2018-07-22T08:46:49.700Z,26.27
2018-07-22T08:49:18.761Z,26.37
2018-07-22T08:51:47.456Z,26.33
2018-07-22T08:54:16.059Z,26.77
2018-07-22T08:56:44.605Z,26.82
2018-07-22T08:59:13.511Z,27.10
2018-07-22T09:01:42.277Z,27.30
2018-07-22T09:04:10.819Z,27.62
2018-07-22T09:06:39.382Z,27.65
2018-07-22T09:09:09.799Z,27.94
2018-07-22T09:11:39.485Z,28.28
2018-07-22T09:14:08.922Z,28.52
2018-07-22T09:16:37.652Z,27.93
2018-07-22T09:19:06.254Z,28.04
2018-07-22T09:21:34.776Z,27.66
2018-07-22T09:24:03.391Z,27.38
2018-07-22T09:26:32.078Z,26.77
2018-07-22T09:29:00.594Z,26.50
2018-07-22T09:31:29.277Z,26.34
2018-07-22T09:33:57.741Z,26.30
2018-07-22T09:36:26.253Z,26.52
2018-07-22T09:38:54.894Z,26.66
2018-07-22T09:41:23.399Z,26.63
2018-07-22T09:43:51.968Z,26.72
2018-07-22T09:46:20.516Z,26.86
2018-07-22T09:48:49.146Z,26.75
2018-07-22T09:51:17.842Z,27.09
2018-07-22T09:53:46.348Z,27.45
2018-07-22T09:56:14.817Z,28.04
2018-07-22T09:58:43.319Z,28.59
2018-07-22T10:01:11.971Z,29.00
2018-07-22T10:03:40.662Z,29.14
2018-07-22T10:06:09.329Z,29.08
2018-07-22T10:08:38.738Z,29.01
2018-07-22T10:11:07.341Z,29.96
2018-07-22T10:13:36.319Z,30.50
2018-07-22T10:16:04.819Z,31.33
2018-07-22T10:18:33.394Z,32.02
2018-07-22T10:21:01.910Z,31.61
2018-07-22T10:23:30.610Z,31.85
2018-07-22T10:25:59.193Z,32.17
2018-07-22T10:28:27.899Z,32.49
2018-07-22T10:30:56.438Z,33.05
2018-07-22T10:33:24.988Z,32.83
2018-07-22T10:35:53.611Z,33.44
2018-07-22T10:38:22.042Z,34.00
2018-07-22T10:40:51.103Z,34.80
2018-07-22T10:43:23.837Z,35.13
2018-07-22T10:45:52.698Z,34.88
2018-07-22T10:48:21.230Z,35.24
2018-07-22T10:50:49.740Z,35.33
2018-07-22T10:53:18.456Z,34.07
2018-07-22T10:55:47.249Z,34.42
2018-07-22T10:58:15.746Z,33.11
2018-07-22T11:00:44.359Z,32.77
2018-07-22T11:04:15.879Z,33.44
2018-07-22T11:06:44.621Z,34.80
2018-07-22T11:09:13.374Z,35.88
2018-07-22T11:11:41.914Z,35.44
2018-07-22T11:14:10.544Z,34.84
2018-07-22T11:16:39.570Z,35.40
2018-07-22T11:19:08.370Z,35.13
2018-07-22T11:21:37.092Z,34.64
2018-07-22T11:24:06.053Z,34.60
2018-07-22T11:26:34.851Z,35.68
2018-07-22T11:29:03.551Z,35.74
2018-07-22T11:31:32.171Z,36.86
2018-07-22T11:34:00.714Z,36.50
2018-07-22T11:36:29.230Z,37.22
2018-07-22T11:38:57.850Z,38.01
2018-07-22T11:41:26.462Z,37.90
2018-07-22T11:43:55.107Z,38.30
2018-07-22T11:46:23.775Z,38.11
2018-07-22T11:48:52.343Z,38.34
2018-07-22T11:51:20.847Z,39.12
2018-07-22T11:53:49.519Z,39.80
2018-07-22T11:56:22.957Z,39.91
2018-07-22T11:58:51.569Z,38.22
2018-07-22T12:01:20.281Z,38.76
2018-07-22T12:03:48.979Z,38.67
2018-07-22T12:06:17.470Z,39.84
2018-07-22T12:08:46.018Z,40.57
2018-07-22T12:11:14.559Z,40.23
2018-07-22T12:13:43.286Z,41.12
2018-07-22T12:16:11.822Z,41.23
2018-07-22T12:18:40.401Z,41.83
2018-07-22T12:21:08.945Z,41.00
2018-07-22T12:23:37.451Z,40.69
2018-07-22T12:26:05.954Z,40.79
2018-07-22T12:28:34.523Z,40.59
2018-07-22T12:31:03.117Z,41.61
2018-07-22T12:33:32.283Z,42.02
2018-07-22T12:36:00.763Z,41.68
2018-07-22T12:38:29.278Z,41.80
2018-07-22T12:40:57.803Z,41.94
2018-07-22T12:43:26.581Z,40.57
2018-07-22T12:45:55.088Z,41.78
2018-07-22T12:48:23.587Z,42.40
2018-07-22T12:50:52.163Z,42.08
2018-07-22T12:53:20.620Z,40.19
2018-07-22T12:55:49.139Z,37.10
2018-07-22T12:58:17.643Z,35.65
2018-07-22T13:00:46.222Z,35.54
2018-07-22T13:03:14.898Z,35.86
2018-07-22T13:05:43.398Z,34.94
2018-07-22T13:08:12.043Z,35.39
2018-07-22T13:10:40.645Z,34.40
2018-07-22T13:13:09.221Z,34.69
2018-07-22T13:15:37.807Z,37.17
2018-07-22T13:18:11.134Z,39.67
2018-07-22T13:20:39.894Z,39.40
2018-07-22T13:23:09.172Z,38.11
2018-07-22T13:25:37.945Z,38.07
2018-07-22T13:28:06.821Z,34.96
2018-07-22T13:30:35.463Z,33.03
2018-07-22T13:33:03.997Z,34.38
2018-07-22T13:35:32.730Z,38.70
2018-07-22T13:38:01.500Z,40.23
2018-07-22T13:40:30.010Z,37.85
2018-07-22T13:42:58.570Z,34.20
2018-07-22T13:45:27.148Z,32.92
2018-07-22T13:47:55.676Z,32.23
2018-07-22T13:50:24.529Z,32.12
2018-07-22T13:52:53.097Z,34.44
2018-07-22T13:55:21.715Z,32.34
2018-07-22T13:57:50.287Z,31.92
2018-07-22T14:00:18.974Z,33.22
2018-07-22T14:02:47.442Z,37.00
2018-07-22T14:05:16.178Z,40.07
2018-07-22T14:07:44.695Z,42.10
2018-07-22T14:10:13.315Z,42.07
2018-07-22T14:12:41.830Z,42.69
2018-07-22T14:15:14.505Z,43.87
2018-07-22T14:17:43.260Z,45.32
2018-07-22T14:20:11.745Z,45.48
2018-07-22T14:22:40.724Z,45.09
2018-07-22T14:25:09.589Z,39.80
2018-07-22T14:27:38.266Z,36.61
2018-07-22T14:30:06.842Z,40.56
2018-07-22T14:32:35.494Z,40.62
2018-07-22T14:35:04.212Z,40.36
2018-07-22T14:37:32.854Z,41.62
2018-07-22T14:40:01.603Z,38.50
2018-07-22T14:42:30.203Z,37.04
2018-07-22T14:44:58.834Z,39.59
2018-07-22T14:47:27.467Z,40.69
2018-07-22T14:49:56.827Z,38.81
2018-07-22T14:52:25.386Z,37.34
2018-07-22T14:54:54.079Z,40.13
2018-07-22T14:57:22.582Z,40.99
2018-07-22T14:59:52.327Z,42.06
2018-07-22T15:02:21.035Z,43.18
2018-07-22T15:04:53.535Z,40.45
2018-07-22T15:07:22.078Z,40.82
2018-07-22T15:09:50.696Z,39.01
2018-07-22T15:12:19.183Z,36.93
2018-07-22T15:14:47.898Z,35.48
2018-07-22T15:17:16.460Z,38.10
2018-07-22T15:19:45.375Z,37.89
2018-07-22T15:22:14.216Z,37.47
2018-07-22T15:24:44.558Z,39.99
2018-07-22T15:27:13.046Z,40.36
2018-07-22T15:29:41.851Z,41.10
2018-07-22T15:32:10.567Z,40.03
2018-07-22T15:34:39.335Z,38.60
2018-07-22T15:37:07.959Z,38.93
2018-07-22T15:39:36.705Z,41.23
2018-07-22T15:42:05.314Z,40.66
2018-07-22T15:44:33.866Z,39.99
2018-07-22T15:47:02.551Z,40.85
2018-07-22T15:49:31.014Z,38.98
2018-07-22T15:51:59.623Z,40.72
2018-07-22T15:54:28.217Z,40.37
2018-07-22T15:56:56.750Z,41.32
2018-07-22T15:59:25.479Z,42.94
2018-07-22T16:01:54.257Z,43.22
2018-07-22T16:04:23.091Z,40.58
2018-07-22T16:06:51.665Z,39.91
2018-07-22T16:09:20.161Z,41.00
2018-07-22T16:11:48.877Z,37.62
2018-07-22T16:14:17.699Z,35.46
2018-07-22T16:16:47.035Z,34.58
2018-07-22T16:19:15.952Z,32.98
2018-07-22T16:21:44.489Z,32.72
2018-07-22T16:24:13.357Z,32.82
2018-07-22T16:26:41.947Z,34.88
2018-07-22T16:29:10.719Z,36.87
2018-07-22T16:35:12.347Z,38.29
2018-07-22T16:37:41.055Z,38.82
2018-07-22T16:40:09.734Z,38.66
2018-07-22T16:42:38.502Z,39.06
2018-07-22T16:45:07.051Z,39.73
2018-07-22T16:47:36.514Z,39.18
2018-07-22T16:50:05.356Z,39.35
2018-07-22T16:52:34.130Z,39.89
2018-07-22T16:55:02.755Z,39.71
2018-07-22T16:57:32.308Z,39.22
2018-07-22T17:00:00.879Z,38.70
2018-07-22T17:02:29.973Z,39.70
2018-07-22T17:04:58.920Z,39.45
2018-07-22T17:07:27.437Z,39.88
2018-07-22T17:09:55.965Z,39.30
2018-07-22T17:12:24.706Z,39.22
2018-07-22T17:14:53.310Z,39.76
2018-07-22T17:17:21.810Z,39.23
2018-07-22T17:19:50.479Z,39.43
2018-07-22T17:22:18.974Z,37.03
2018-07-22T17:24:48.545Z,37.08
2018-07-22T17:27:17.043Z,37.62
2018-07-22T17:29:46.550Z,37.35
2018-07-22T17:32:15.002Z,37.06
2018-07-22T17:34:43.673Z,34.50
2018-07-22T17:37:12.170Z,34.82
2018-07-22T17:39:40.702Z,33.96
2018-07-22T17:42:09.267Z,35.11
2018-07-22T17:44:37.830Z,35.36
2018-07-22T17:47:06.462Z,36.03
2018-07-22T17:49:35.213Z,36.25
2018-07-22T17:52:03.641Z,36.19
2018-07-22T17:54:32.226Z,36.66
2018-07-22T17:57:00.814Z,36.31
2018-07-22T17:59:29.449Z,35.20
2018-07-22T18:01:57.975Z,34.58
2018-07-22T18:04:26.478Z,32.92
2018-07-22T18:06:55.094Z,31.81
2018-07-22T18:09:23.701Z,31.01
2018-07-22T18:11:52.289Z,30.29
2018-07-22T18:14:21.071Z,30.02
2018-07-22T18:16:49.643Z,29.61
2018-07-22T18:19:18.236Z,29.19
2018-07-22T18:21:46.940Z,28.80
2018-07-22T18:24:15.505Z,28.48
2018-07-22T18:26:44.011Z,27.98
2018-07-22T18:29:12.627Z,27.73
2018-07-22T18:31:41.166Z,27.42
2018-07-22T18:34:09.823Z,27.08
2018-07-22T18:36:38.323Z,26.71
2018-07-22T18:39:09.135Z,26.39
2018-07-22T18:41:37.744Z,26.25
2018-07-22T18:44:06.799Z,26.00
2018-07-22T18:46:35.795Z,25.94
2018-07-22T18:49:04.343Z,25.89
2018-07-22T18:51:32.939Z,25.79
2018-07-22T18:54:01.522Z,25.74
2018-07-22T18:56:30.059Z,25.69
2018-07-22T18:58:58.610Z,25.56
2018-07-22T19:01:27.146Z,25.55
2018-07-22T19:03:55.757Z,25.40
2018-07-22T19:06:24.459Z,25.38
2018-07-22T19:08:52.996Z,25.28
2018-07-22T19:11:21.553Z,25.30
2018-07-22T19:13:50.477Z,25.28
2018-07-22T19:16:19.306Z,25.31
2018-07-22T19:18:47.925Z,25.33
2018-07-22T19:21:16.623Z,25.40
2018-07-22T19:23:45.255Z,25.44
2018-07-22T19:26:13.783Z,25.45
2018-07-22T19:28:42.415Z,25.29
2018-07-22T19:31:10.927Z,24.99
2018-07-22T19:33:39.469Z,24.83
2018-07-22T19:36:08.038Z,24.69
2018-07-22T19:38:36.614Z,24.57
2018-07-22T19:41:05.194Z,24.45
2018-07-22T19:43:33.820Z,24.43
2018-07-22T19:46:03.450Z,24.41
2018-07-22T19:48:32.212Z,24.34
2018-07-22T19:51:00.823Z,24.29
2018-07-22T19:53:29.418Z,24.16
2018-07-22T19:55:58.055Z,24.10
2018-07-22T19:58:26.557Z,23.98
2018-07-22T20:00:55.322Z,23.97
2018-07-22T20:03:23.964Z,23.94
2018-07-22T20:05:52.682Z,23.83
2018-07-22T20:08:21.222Z,23.82
2018-07-22T20:10:50.031Z,23.72
2018-07-22T20:13:18.888Z,23.66
2018-07-22T20:15:47.529Z,23.63
2018-07-22T20:18:16.269Z,23.56
2018-07-22T20:20:44.842Z,23.51
2018-07-22T20:23:13.385Z,23.39
2018-07-22T20:25:42.214Z,23.37
2018-07-22T20:28:10.791Z,23.29
2018-07-22T20:30:43.466Z,23.29
2018-07-22T20:33:12.227Z,23.20
2018-07-22T20:35:41.607Z,23.20
2018-07-22T20:38:10.142Z,23.17
2018-07-22T20:40:38.704Z,23.17
2018-07-22T20:43:07.322Z,23.11
2018-07-22T20:45:36.145Z,22.99
2018-07-22T20:48:04.708Z,23.01
2018-07-22T20:50:33.368Z,22.97
2018-07-22T20:53:02.239Z,22.95
2018-07-22T20:55:30.840Z,22.83
2018-07-22T20:57:59.670Z,22.79
2018-07-22T21:00:28.491Z,22.69
2018-07-22T21:02:57.057Z,22.60
2018-07-22T21:05:25.545Z,22.57
2018-07-22T21:07:54.003Z,22.52
2018-07-22T21:10:22.489Z,22.44
2018-07-22T21:13:03.134Z,22.43
2018-07-22T21:15:31.953Z,22.41
2018-07-22T21:18:00.679Z,22.43
2018-07-22T21:20:29.228Z,22.40
2018-07-22T21:22:57.818Z,22.40
2018-07-22T21:25:26.263Z,22.38
2018-07-22T21:27:54.776Z,22.36
2018-07-22T21:30:23.276Z,22.34
2018-07-22T21:32:51.835Z,22.31
2018-07-22T21:35:20.332Z,22.24
2018-07-22T21:37:48.900Z,22.06
2018-07-22T21:40:17.408Z,21.96
2018-07-22T21:42:46.033Z,21.88
2018-07-22T21:45:14.682Z,21.87
2018-07-22T21:47:43.517Z,21.82
2018-07-22T21:50:12.082Z,21.82
2018-07-22T21:52:40.608Z,21.80
2018-07-22T21:55:09.106Z,21.77
2018-07-22T21:57:38.063Z,21.73
2018-07-22T22:00:21.143Z,21.81
2018-07-22T22:02:49.863Z,21.78
2018-07-22T22:05:18.558Z,21.78
2018-07-22T22:07:47.794Z,21.67
2018-07-22T22:10:16.440Z,21.49
2018-07-22T22:12:45.179Z,21.42
2018-07-22T22:15:19.032Z,21.37
2018-07-22T22:17:47.534Z,21.29
2018-07-22T22:20:16.106Z,21.19
2018-07-22T22:22:44.777Z,21.16
2018-07-22T22:25:13.303Z,21.04
2018-07-22T22:27:41.830Z,20.98
2018-07-22T22:30:11.935Z,20.99
2018-07-22T22:32:40.528Z,20.98
2018-07-22T22:35:09.536Z,20.96
2018-07-22T22:37:38.263Z,20.99
2018-07-22T22:40:07.129Z,20.98
2018-07-22T22:42:35.702Z,20.94
2018-07-22T22:45:04.387Z,20.94
2018-07-22T22:47:32.851Z,20.93
2018-07-22T22:50:01.450Z,20.90
2018-07-22T22:52:34.330Z,20.92
2018-07-22T22:55:02.873Z,20.91
2018-07-22T22:57:31.511Z,20.87
2018-07-22T23:00:00.065Z,20.82
2018-07-22T23:02:35.142Z,20.70
2018-07-22T23:05:04.306Z,20.61
2018-07-22T23:07:32.826Z,20.52
2018-07-22T23:10:01.576Z,20.49
2018-07-22T23:12:30.070Z,20.39
2018-07-22T23:14:58.557Z,20.34
2018-07-22T23:17:27.207Z,20.21
2018-07-22T23:19:56.007Z,20.10
2018-07-22T23:22:24.610Z,20.00
2018-07-22T23:24:53.148Z,19.97
2018-07-22T23:27:21.683Z,19.95
2018-07-22T23:29:50.701Z,19.93
2018-07-22T23:32:19.171Z,19.94
2018-07-22T23:34:47.712Z,20.03
2018-07-22T23:37:16.227Z,20.06
2018-07-22T23:39:44.757Z,20.05
2018-07-22T23:42:13.362Z,19.99
2018-07-22T23:44:42.114Z,19.99
2018-07-22T23:47:10.606Z,19.96
2018-07-22T23:49:39.226Z,19.92
2018-07-22T23:52:07.747Z,19.88
2018-07-22T23:54:36.282Z,19.83
2018-07-22T23:57:04.814Z,19.75
2018-07-22T23:59:33.640Z,19.70
